createdAt,value
2018-04-29T00:00:09.965Z,14.57
2018-04-29T00:02:35.760Z,14.55
2018-04-29T00:05:01.544Z,14.53
2018-04-29T00:07:27.337Z,14.51
2018-04-29T00:09:53.115Z,14.50
2018-04-29T00:12:18.867Z,14.50
2018-04-29T00:14:44.652Z,14.49
2018-04-29T00:17:10.412Z,14.48
2018-04-29T00:19:36.179Z,14.48
2018-04-29T00:22:01.927Z,14.48
2018-04-29T00:24:27.984Z,14.49
2018-04-29T00:26:53.768Z,14.50
2018-04-29T00:29:19.519Z,14.48
2018-04-29T00:31:45.291Z,14.43
2018-04-29T00:34:11.047Z,14.41
2018-04-29T00:36:36.819Z,14.39
2018-04-29T00:39:02.596Z,14.38
2018-04-29T00:41:28.604Z,14.39
2018-04-29T00:43:54.379Z,14.41
2018-04-29T00:46:20.156Z,14.41
2018-04-29T00:48:45.960Z,14.43
2018-04-29T00:51:11.696Z,14.40
2018-04-29T00:53:37.469Z,14.40
2018-04-29T00:56:03.232Z,14.39
2018-04-29T00:58:28.988Z,14.39
2018-04-29T01:00:54.752Z,14.39
2018-04-29T01:03:20.820Z,14.34
2018-04-29T01:05:46.575Z,14.31
2018-04-29T01:08:12.613Z,14.31
2018-04-29T01:10:38.393Z,14.28
2018-04-29T01:13:04.151Z,14.27
2018-04-29T01:15:29.948Z,14.26
2018-04-29T01:17:55.711Z,14.25
2018-04-29T01:20:21.486Z,14.26
2018-04-29T01:22:47.266Z,14.26
2018-04-29T01:25:13.035Z,14.26
2018-04-29T01:27:38.847Z,14.27
2018-04-29T01:30:04.603Z,14.26
2018-04-29T01:32:30.708Z,14.22
2018-04-29T01:34:56.468Z,14.21
2018-04-29T01:37:22.297Z,14.18
2018-04-29T01:39:48.065Z,14.17
2018-04-29T01:42:13.799Z,14.17
2018-04-29T01:44:39.565Z,14.16
2018-04-29T01:47:05.343Z,14.17
2018-04-29T01:49:31.108Z,14.14
2018-04-29T01:51:56.891Z,14.12
2018-04-29T01:54:22.648Z,14.09
2018-04-29T01:56:48.488Z,14.08
2018-04-29T01:59:14.249Z,14.05
2018-04-29T02:01:40.029Z,14.04
2018-04-29T02:04:05.783Z,14.00
2018-04-29T02:06:31.543Z,14.03
2018-04-29T02:08:57.298Z,14.04
2018-04-29T02:11:23.080Z,14.05
2018-04-29T02:13:48.872Z,14.03
2018-04-29T02:16:14.636Z,14.01
2018-04-29T02:18:40.518Z,13.97
2018-04-29T02:21:06.278Z,13.97
2018-04-29T02:23:32.047Z,13.96
2018-04-29T02:25:57.796Z,13.93
2018-04-29T02:28:23.563Z,13.90
2018-04-29T02:30:49.318Z,13.86
2018-04-29T02:33:15.104Z,13.83
2018-04-29T02:35:40.859Z,13.81
2018-04-29T02:38:06.636Z,13.77
2018-04-29T02:40:32.395Z,13.72
2018-04-29T02:42:58.198Z,13.69
2018-04-29T02:45:23.949Z,13.69
2018-04-29T02:47:49.728Z,13.68
2018-04-29T02:50:15.480Z,13.62
2018-04-29T02:52:41.549Z,13.55
2018-04-29T02:55:07.310Z,13.48
2018-04-29T02:57:33.147Z,13.45
2018-04-29T02:59:58.923Z,13.39
2018-04-29T03:02:24.719Z,13.36
2018-04-29T03:04:50.899Z,13.27
2018-04-29T03:07:16.685Z,13.17
2018-04-29T03:09:42.440Z,13.10
2018-04-29T03:12:08.204Z,13.03
2018-04-29T03:14:33.991Z,13.00
2018-04-29T03:16:59.926Z,13.02
2018-04-29T03:19:25.702Z,12.97
2018-04-29T03:21:51.447Z,12.92
2018-04-29T03:24:17.238Z,12.85
2018-04-29T03:26:42.983Z,12.78
2018-04-29T03:29:08.756Z,12.73
2018-04-29T03:31:34.507Z,12.69
2018-04-29T03:34:00.292Z,12.67
2018-04-29T03:36:26.040Z,12.64
2018-04-29T03:38:51.791Z,12.64
2018-04-29T03:41:17.562Z,12.68
2018-04-29T03:43:43.325Z,12.74
2018-04-29T03:46:09.084Z,12.80
2018-04-29T03:48:34.863Z,12.85
2018-04-29T03:51:00.626Z,12.86
2018-04-29T03:53:26.390Z,12.87
2018-04-29T03:55:52.408Z,12.89
2018-04-29T03:58:30.387Z,12.87
2018-04-29T04:01:08.504Z,12.83
2018-04-29T04:06:41.197Z,12.79
2018-04-29T04:09:06.992Z,12.77
2018-04-29T04:11:32.756Z,12.75
2018-04-29T04:13:58.491Z,12.74
2018-04-29T04:16:24.262Z,12.74
2018-04-29T04:18:50.132Z,12.74
2018-04-29T04:21:15.879Z,12.72
2018-04-29T04:23:41.725Z,12.73
2018-04-29T04:26:07.448Z,12.72
2018-04-29T04:28:33.397Z,12.73
2018-04-29T04:30:59.147Z,12.72
2018-04-29T04:33:24.923Z,12.74
2018-04-29T04:35:50.672Z,12.75
2018-04-29T04:38:16.438Z,12.83
2018-04-29T04:40:42.235Z,12.92
2018-04-29T04:43:07.983Z,13.05
2018-04-29T04:45:33.889Z,13.18
2018-04-29T04:47:59.692Z,13.29
2018-04-29T04:50:25.491Z,13.42
2018-04-29T04:52:51.255Z,13.55
2018-04-29T04:55:17.044Z,13.66
2018-04-29T04:57:42.811Z,13.72
2018-04-29T05:00:08.579Z,13.80
2018-04-29T05:02:34.329Z,13.84
2018-04-29T05:05:00.120Z,13.89
2018-04-29T05:07:25.898Z,13.89
2018-04-29T05:09:51.670Z,13.89
2018-04-29T05:12:17.415Z,14.01
2018-04-29T05:14:43.196Z,14.14
2018-04-29T05:17:08.950Z,14.31
2018-04-29T05:19:34.731Z,14.50
2018-04-29T05:22:00.485Z,14.58
2018-04-29T05:24:26.283Z,14.55
2018-04-29T05:26:52.039Z,14.63
2018-04-29T05:29:17.855Z,14.70
2018-04-29T05:31:43.607Z,14.83
2018-04-29T05:34:09.374Z,14.98
2018-04-29T05:36:35.500Z,15.17
2018-04-29T05:39:01.267Z,15.36
2018-04-29T05:41:27.032Z,15.55
2018-04-29T05:43:52.815Z,15.61
2018-04-29T05:46:18.580Z,15.66
2018-04-29T05:48:44.332Z,15.77
2018-04-29T05:51:10.099Z,15.86
2018-04-29T05:53:35.848Z,15.91
2018-04-29T05:56:01.755Z,16.01
2018-04-29T05:58:27.514Z,16.05
2018-04-29T06:00:53.280Z,16.08
2018-04-29T06:03:19.024Z,16.08
2018-04-29T06:05:44.787Z,16.23
2018-04-29T06:08:10.524Z,16.32
2018-04-29T06:10:36.269Z,16.24
2018-04-29T06:13:02.056Z,16.28
2018-04-29T06:15:27.890Z,16.28
2018-04-29T06:17:53.672Z,16.31
2018-04-29T06:20:19.524Z,16.38
2018-04-29T06:22:55.125Z,16.50
2018-04-29T06:25:21.967Z,16.57
2018-04-29T06:27:47.719Z,16.53
2018-04-29T06:30:13.499Z,16.60
2018-04-29T06:32:39.263Z,16.73
2018-04-29T06:35:05.048Z,16.82
2018-04-29T06:37:30.842Z,16.85
2018-04-29T06:39:56.592Z,16.97
2018-04-29T06:42:22.366Z,16.95
2018-04-29T06:44:48.178Z,16.77
2018-04-29T06:47:13.949Z,16.71
2018-04-29T06:49:39.712Z,16.54
2018-04-29T06:52:05.483Z,16.38
2018-04-29T06:54:31.248Z,16.37
2018-04-29T06:56:57.361Z,16.34
2018-04-29T06:59:23.108Z,16.32
2018-04-29T07:01:49.158Z,16.25
2018-04-29T07:04:14.919Z,16.26
2018-04-29T07:06:40.744Z,16.34
2018-04-29T07:09:06.479Z,16.48
2018-04-29T07:11:32.260Z,16.55
2018-04-29T07:13:58.005Z,16.66
2018-04-29T07:16:23.787Z,16.77
2018-04-29T07:18:49.596Z,16.92
2018-04-29T07:21:15.376Z,17.03
2018-04-29T07:23:41.123Z,17.16
2018-04-29T07:26:06.929Z,17.26
2018-04-29T07:28:32.660Z,17.18
2018-04-29T07:30:58.446Z,17.28
2018-04-29T07:33:24.188Z,17.26
2018-04-29T07:35:50.010Z,17.27
2018-04-29T07:38:15.976Z,17.39
2018-04-29T07:40:41.729Z,17.46
2018-04-29T07:43:07.519Z,17.58
2018-04-29T07:45:33.284Z,17.56
2018-04-29T07:47:59.049Z,17.70
2018-04-29T07:50:24.876Z,17.73
2018-04-29T07:52:50.648Z,17.73
2018-04-29T07:55:16.411Z,17.67
2018-04-29T07:57:42.213Z,17.75
2018-04-29T08:00:08.003Z,17.82
2018-04-29T08:02:33.775Z,17.84
2018-04-29T08:04:59.528Z,17.87
2018-04-29T08:07:25.322Z,17.94
2018-04-29T08:09:51.067Z,17.91
2018-04-29T08:12:16.877Z,17.88
2018-04-29T08:14:42.653Z,17.94
2018-04-29T08:17:08.583Z,18.03
2018-04-29T08:19:34.344Z,18.05
2018-04-29T08:22:00.130Z,18.06
2018-04-29T08:24:25.895Z,18.00
2018-04-29T08:26:51.667Z,18.09
2018-04-29T08:29:17.424Z,17.97
2018-04-29T08:31:43.203Z,18.04
2018-04-29T08:34:08.972Z,18.11
2018-04-29T08:36:34.757Z,18.14
2018-04-29T08:39:00.529Z,18.26
2018-04-29T08:41:26.296Z,18.38
2018-04-29T08:43:52.065Z,18.33
2018-04-29T08:46:17.824Z,18.34
2018-04-29T08:48:43.743Z,18.45
2018-04-29T08:51:09.514Z,18.60
2018-04-29T08:53:35.288Z,18.74
2018-04-29T08:56:07.939Z,18.85
2018-04-29T08:58:33.672Z,18.88
2018-04-29T09:00:59.423Z,18.88
2018-04-29T09:03:25.361Z,18.66
2018-04-29T09:05:51.176Z,18.70
2018-04-29T09:08:16.971Z,18.72
2018-04-29T09:10:42.731Z,18.75
2018-04-29T09:13:08.499Z,18.84
2018-04-29T09:15:34.281Z,18.92
2018-04-29T09:18:00.059Z,19.05
2018-04-29T09:20:25.819Z,19.03
2018-04-29T09:22:51.611Z,19.11
2018-04-29T09:25:17.351Z,19.19
2018-04-29T09:27:43.131Z,19.29
2018-04-29T09:30:08.887Z,19.45
2018-04-29T09:32:34.662Z,19.45
2018-04-29T09:35:00.423Z,19.52
2018-04-29T09:37:26.215Z,19.64
2018-04-29T09:39:51.959Z,19.48
2018-04-29T09:42:17.753Z,19.42
2018-04-29T09:44:43.531Z,19.41
2018-04-29T09:47:09.303Z,19.53
2018-04-29T09:49:35.099Z,19.64
2018-04-29T09:52:00.884Z,19.79
2018-04-29T09:54:26.647Z,19.88
2018-04-29T09:56:52.407Z,19.78
2018-04-29T09:59:18.194Z,19.78
2018-04-29T10:01:50.215Z,19.70
2018-04-29T10:04:16.295Z,19.81
2018-04-29T10:06:42.068Z,20.03
2018-04-29T10:09:07.855Z,20.05
2018-04-29T10:11:33.613Z,20.01
2018-04-29T10:13:59.426Z,20.21
2018-04-29T10:16:25.315Z,20.35
2018-04-29T10:18:51.103Z,20.60
2018-04-29T10:21:16.927Z,20.82
2018-04-29T10:23:42.803Z,20.92
2018-04-29T10:26:08.570Z,20.94
2018-04-29T10:28:34.364Z,20.41
2018-04-29T10:31:00.116Z,20.31
2018-04-29T10:33:25.914Z,20.26
2018-04-29T10:35:51.656Z,20.26
2018-04-29T10:38:17.439Z,20.34
2018-04-29T10:40:43.498Z,20.57
2018-04-29T10:43:09.282Z,20.92
2018-04-29T10:45:35.747Z,21.01
2018-04-29T10:48:01.520Z,20.99
2018-04-29T10:50:27.309Z,20.98
2018-04-29T10:52:53.084Z,21.08
2018-04-29T10:55:18.883Z,21.07
2018-04-29T10:57:44.630Z,21.06
2018-04-29T11:00:10.763Z,21.19
2018-04-29T11:02:36.569Z,21.09
2018-04-29T11:05:02.373Z,21.02
2018-04-29T11:07:28.112Z,21.28
2018-04-29T11:09:53.906Z,21.58
2018-04-29T11:12:19.648Z,21.86
2018-04-29T11:14:45.488Z,22.16
2018-04-29T11:17:11.244Z,22.32
2018-04-29T11:19:36.998Z,22.39
2018-04-29T11:22:02.822Z,22.46
2018-04-29T11:24:28.596Z,22.24
2018-04-29T11:26:54.362Z,22.23
2018-04-29T11:29:20.173Z,22.11
2018-04-29T11:31:45.964Z,21.97
2018-04-29T11:34:11.728Z,21.99
2018-04-29T11:36:37.520Z,22.20
2018-04-29T11:39:03.304Z,22.44
2018-04-29T11:41:29.089Z,22.53
2018-04-29T11:43:54.863Z,22.35
2018-04-29T11:46:20.628Z,22.22
2018-04-29T11:48:46.398Z,22.24
2018-04-29T11:51:12.351Z,22.22
2018-04-29T11:53:38.132Z,22.36
2018-04-29T11:56:03.904Z,22.44
2018-04-29T11:58:29.720Z,22.55
2018-04-29T12:00:55.507Z,22.46
2018-04-29T12:03:21.260Z,22.48
2018-04-29T12:05:47.050Z,22.44
2018-04-29T12:08:12.811Z,22.49
2018-04-29T12:10:38.647Z,22.65
2018-04-29T12:13:04.419Z,22.88
2018-04-29T12:15:30.199Z,23.09
2018-04-29T12:17:55.951Z,23.12
2018-04-29T12:20:21.718Z,22.89
2018-04-29T12:22:47.485Z,22.94
2018-04-29T12:25:13.263Z,23.27
2018-04-29T12:27:39.012Z,23.44
2018-04-29T12:30:04.807Z,23.38
2018-04-29T12:32:30.556Z,23.24
2018-04-29T12:34:56.327Z,23.28
2018-04-29T12:37:22.092Z,23.36
2018-04-29T12:39:47.926Z,23.33
2018-04-29T12:42:13.663Z,23.35
2018-04-29T12:44:39.448Z,22.94
2018-04-29T12:47:05.201Z,22.61
2018-04-29T12:49:30.983Z,22.53
2018-04-29T12:51:56.827Z,22.42
2018-04-29T12:54:22.594Z,22.56
2018-04-29T12:56:48.399Z,22.68
2018-04-29T12:59:14.150Z,22.90
2018-04-29T13:01:39.966Z,23.29
2018-04-29T13:04:05.720Z,23.51
2018-04-29T13:06:31.511Z,23.81
2018-04-29T13:08:57.253Z,23.76
2018-04-29T13:11:23.023Z,23.83
2018-04-29T13:13:48.803Z,23.90
2018-04-29T13:16:14.583Z,23.92
2018-04-29T13:18:40.367Z,23.94
2018-04-29T13:21:06.147Z,23.70
2018-04-29T13:23:31.933Z,23.78
2018-04-29T13:25:57.759Z,23.72
2018-04-29T13:28:23.495Z,23.54
2018-04-29T13:30:49.288Z,23.62
2018-04-29T13:33:15.068Z,23.46
2018-04-29T13:35:40.871Z,22.95
2018-04-29T13:38:06.625Z,22.80
2018-04-29T13:40:32.389Z,22.43
2018-04-29T13:42:58.177Z,22.41
2018-04-29T13:45:23.939Z,22.42
2018-04-29T13:47:49.697Z,22.51
2018-04-29T13:50:15.464Z,22.46
2018-04-29T13:52:41.556Z,22.60
2018-04-29T13:55:07.357Z,22.77
2018-04-29T13:57:33.175Z,22.75
2018-04-29T13:59:58.941Z,22.70
2018-04-29T14:02:24.711Z,22.67
2018-04-29T14:04:50.784Z,22.56
2018-04-29T14:07:16.566Z,22.50
2018-04-29T14:09:42.363Z,22.42
2018-04-29T14:12:08.124Z,22.39
2018-04-29T14:14:33.895Z,22.53
2018-04-29T14:16:59.666Z,22.32
2018-04-29T14:19:25.440Z,22.14
2018-04-29T14:21:51.233Z,22.14
2018-04-29T14:24:17.004Z,22.02
2018-04-29T14:26:42.963Z,21.99
2018-04-29T14:29:08.875Z,22.08
2018-04-29T14:31:34.668Z,22.30
2018-04-29T14:34:00.443Z,22.37
2018-04-29T14:36:26.210Z,22.56
2018-04-29T14:38:52.020Z,22.73
2018-04-29T14:41:17.783Z,22.86
2018-04-29T14:43:43.560Z,23.11
2018-04-29T14:46:09.339Z,23.28
2018-04-29T14:48:35.096Z,23.47
2018-04-29T14:51:00.854Z,23.38
2018-04-29T14:53:26.639Z,22.87
2018-04-29T14:55:52.469Z,22.49
2018-04-29T14:58:18.246Z,22.29
2018-04-29T15:00:44.020Z,22.18
2018-04-29T15:03:09.859Z,22.15
2018-04-29T15:05:35.619Z,22.03
2018-04-29T15:08:01.632Z,21.70
2018-04-29T15:10:27.413Z,21.60
2018-04-29T15:12:53.184Z,21.45
2018-04-29T15:15:18.956Z,21.35
2018-04-29T15:17:44.741Z,21.32
2018-04-29T15:20:10.529Z,21.35
2018-04-29T15:22:36.324Z,21.22
2018-04-29T15:25:02.080Z,21.28
2018-04-29T15:27:27.936Z,21.37
2018-04-29T15:29:53.773Z,21.47
2018-04-29T15:32:19.533Z,21.41
2018-04-29T15:34:45.295Z,21.38
2018-04-29T15:37:11.065Z,21.29
2018-04-29T15:39:36.831Z,21.39
2018-04-29T15:42:02.605Z,21.38
2018-04-29T15:44:28.528Z,21.38
2018-04-29T15:46:54.272Z,21.32
2018-04-29T15:49:20.039Z,21.18
2018-04-29T15:51:45.815Z,21.07
2018-04-29T15:54:11.588Z,21.04
2018-04-29T15:56:37.347Z,20.93
2018-04-29T15:59:03.134Z,20.92
2018-04-29T16:01:28.887Z,20.93
2018-04-29T16:03:54.719Z,21.01
2018-04-29T16:06:20.475Z,21.12
2018-04-29T16:08:46.239Z,21.27
2018-04-29T16:11:12.004Z,21.41
2018-04-29T16:13:37.871Z,21.51
2018-04-29T16:16:03.675Z,21.52
2018-04-29T16:18:29.459Z,21.43
2018-04-29T16:20:55.208Z,21.15
2018-04-29T16:23:21.079Z,21.18
2018-04-29T16:25:46.866Z,21.25
2018-04-29T16:28:12.659Z,21.30
2018-04-29T16:30:38.407Z,21.52
2018-04-29T16:33:04.178Z,21.63
2018-04-29T16:35:29.968Z,21.50
2018-04-29T16:37:55.972Z,21.33
2018-04-29T16:40:21.751Z,21.26
2018-04-29T16:42:47.515Z,21.03
2018-04-29T16:45:13.336Z,20.96
2018-04-29T16:47:39.080Z,20.90
2018-04-29T16:50:04.864Z,20.88
2018-04-29T16:52:30.676Z,20.87
2018-04-29T16:54:56.455Z,20.72
2018-04-29T16:57:22.221Z,20.72
2018-04-29T16:59:48.009Z,20.71
2018-04-29T17:02:13.743Z,20.76
2018-04-29T17:04:39.534Z,20.71
2018-04-29T17:07:05.283Z,20.61
2018-04-29T17:09:31.141Z,20.53
2018-04-29T17:11:56.824Z,20.41
2018-04-29T17:14:22.615Z,20.34
2018-04-29T17:16:48.433Z,20.31
2018-04-29T17:19:14.217Z,20.29
2018-04-29T17:21:39.989Z,20.14
2018-04-29T17:24:05.820Z,19.96
2018-04-29T17:26:31.564Z,19.88
2018-04-29T17:28:57.428Z,19.82
2018-04-29T17:31:23.187Z,19.74
2018-04-29T17:33:48.955Z,19.73
2018-04-29T17:36:14.722Z,19.68
2018-04-29T17:38:40.471Z,19.60
2018-04-29T17:41:06.223Z,19.41
2018-04-29T17:43:32.007Z,19.29
2018-04-29T17:45:57.775Z,19.12
2018-04-29T17:48:23.730Z,19.08
2018-04-29T17:50:49.508Z,19.02
2018-04-29T17:53:15.424Z,18.92
2018-04-29T17:55:41.194Z,18.78
2018-04-29T17:58:07.021Z,18.60
2018-04-29T18:00:32.811Z,18.56
2018-04-29T18:02:58.582Z,18.48
2018-04-29T18:05:24.359Z,18.43
2018-04-29T18:07:50.125Z,18.37
2018-04-29T18:10:15.919Z,18.26
2018-04-29T18:12:41.687Z,18.20
2018-04-29T18:15:07.623Z,18.13
2018-04-29T18:17:33.403Z,18.12
2018-04-29T18:19:59.139Z,18.04
2018-04-29T18:22:24.931Z,17.89
2018-04-29T18:24:50.750Z,17.86
2018-04-29T18:27:16.499Z,17.77
2018-04-29T18:29:42.298Z,17.67
2018-04-29T18:32:08.071Z,17.64
2018-04-29T18:34:33.844Z,17.57
2018-04-29T18:36:59.667Z,17.49
2018-04-29T18:39:25.475Z,17.44
2018-04-29T18:41:51.244Z,17.40
2018-04-29T18:44:17.016Z,17.35
2018-04-29T18:46:42.835Z,17.31
2018-04-29T18:49:08.628Z,17.26
2018-04-29T18:51:34.468Z,17.15
2018-04-29T18:54:00.384Z,17.05
2018-04-29T18:56:26.317Z,16.97
2018-04-29T18:58:52.068Z,16.95
2018-04-29T19:01:17.876Z,16.86
2018-04-29T19:03:43.671Z,16.84
2018-04-29T19:06:09.500Z,16.83
2018-04-29T19:08:35.276Z,16.81
2018-04-29T19:11:01.051Z,16.78
2018-04-29T19:13:26.811Z,16.79
2018-04-29T19:15:52.592Z,16.79
2018-04-29T19:18:18.365Z,16.77
2018-04-29T19:20:44.208Z,16.74
2018-04-29T19:23:09.930Z,16.71
2018-04-29T19:25:35.732Z,16.61
2018-04-29T19:28:01.507Z,16.57
2018-04-29T19:30:27.282Z,16.46
2018-04-29T19:32:53.094Z,16.35
2018-04-29T19:35:18.871Z,16.29
2018-04-29T19:37:44.649Z,16.19
2018-04-29T19:40:10.433Z,16.14
2018-04-29T19:42:36.277Z,16.07
2018-04-29T19:45:02.056Z,16.04
2018-04-29T19:47:27.840Z,16.05
2018-04-29T19:49:53.614Z,15.98
2018-04-29T19:52:19.395Z,15.92
2018-04-29T19:54:45.160Z,15.80
2018-04-29T19:57:11.193Z,15.79
2018-04-29T19:59:36.999Z,15.76
2018-04-29T20:02:02.819Z,15.70
2018-04-29T20:04:28.607Z,15.60
2018-04-29T20:06:54.360Z,15.63
2018-04-29T20:09:20.147Z,15.64
2018-04-29T20:11:45.903Z,15.61
2018-04-29T20:14:11.679Z,15.59
2018-04-29T20:16:37.483Z,15.54
2018-04-29T20:19:03.246Z,15.50
2018-04-29T20:21:29.026Z,15.46
2018-04-29T20:23:54.926Z,15.45
2018-04-29T20:26:20.619Z,15.44
2018-04-29T20:28:46.372Z,15.43
2018-04-29T20:31:12.177Z,15.42
2018-04-29T20:33:37.947Z,15.40
2018-04-29T20:36:03.695Z,15.34
2018-04-29T20:38:29.611Z,15.33
2018-04-29T20:40:55.406Z,15.32
2018-04-29T20:43:21.188Z,15.34
2018-04-29T20:45:46.974Z,15.37
2018-04-29T20:48:12.719Z,15.40
2018-04-29T20:50:38.507Z,15.38
2018-04-29T20:53:04.300Z,15.37
2018-04-29T20:55:30.053Z,15.35
2018-04-29T20:57:56.164Z,15.34
2018-04-29T21:00:21.932Z,15.30
2018-04-29T21:02:47.705Z,15.27
2018-04-29T21:05:13.720Z,15.20
2018-04-29T21:07:39.555Z,15.16
2018-04-29T21:10:05.307Z,15.10
2018-04-29T21:12:31.075Z,15.05
2018-04-29T21:14:56.832Z,15.00
2018-04-29T21:17:22.668Z,14.99
2018-04-29T21:19:48.396Z,15.01
2018-04-29T21:22:14.155Z,15.01
2018-04-29T21:24:40.167Z,14.98
2018-04-29T21:27:05.959Z,14.95
2018-04-29T21:29:31.711Z,14.91
2018-04-29T21:31:57.476Z,14.90
2018-04-29T21:34:23.246Z,14.84
2018-04-29T21:36:49.043Z,14.84
2018-04-29T21:39:14.817Z,14.83
2018-04-29T21:41:40.579Z,14.82
2018-04-29T21:44:06.339Z,14.83
2018-04-29T21:46:32.123Z,14.79
2018-04-29T21:48:57.888Z,14.79
2018-04-29T21:51:23.664Z,14.78
2018-04-29T21:53:49.431Z,14.76
2018-04-29T21:56:15.432Z,14.75
2018-04-29T21:58:41.147Z,14.75
2018-04-29T22:01:06.917Z,14.75
2018-04-29T22:03:32.700Z,14.71
2018-04-29T22:05:58.452Z,14.70
2018-04-29T22:08:24.222Z,14.72
2018-04-29T22:10:49.987Z,14.75
2018-04-29T22:13:15.728Z,14.72
2018-04-29T22:15:41.532Z,14.71
2018-04-29T22:18:07.288Z,14.68
2018-04-29T22:20:33.068Z,14.67
2018-04-29T22:22:58.866Z,14.66
2018-04-29T22:25:24.631Z,14.67
2018-04-29T22:27:50.389Z,14.67
2018-04-29T22:30:16.168Z,14.67
2018-04-29T22:32:41.964Z,14.67
2018-04-29T22:35:07.759Z,14.67
2018-04-29T22:37:33.507Z,14.64
2018-04-29T22:39:59.243Z,14.63
2018-04-29T22:42:25.015Z,14.60
2018-04-29T22:44:56.871Z,14.59
2018-04-29T22:47:22.643Z,14.59
2018-04-29T22:49:55.295Z,14.58
2018-04-29T22:52:21.057Z,14.54
2018-04-29T22:54:46.827Z,14.53
2018-04-29T22:57:12.595Z,14.53
2018-04-29T22:59:38.652Z,14.50
2018-04-29T23:02:04.420Z,14.50
2018-04-29T23:04:30.243Z,14.48
2018-04-29T23:06:56.004Z,14.49
2018-04-29T23:09:21.768Z,14.48
2018-04-29T23:11:47.562Z,14.48
2018-04-29T23:14:13.323Z,14.47
2018-04-29T23:16:39.075Z,14.45
2018-04-29T23:19:04.835Z,14.44
2018-04-29T23:21:30.854Z,14.42
2018-04-29T23:23:56.667Z,14.43
2018-04-29T23:26:22.489Z,14.42
2018-04-29T23:28:48.256Z,14.43
2018-04-29T23:31:14.024Z,14.42
2018-04-29T23:33:39.772Z,14.40
2018-04-29T23:36:05.551Z,14.40
2018-04-29T23:38:31.292Z,14.35
2018-04-29T23:40:57.060Z,14.39
2018-04-29T23:43:22.817Z,14.38
2018-04-29T23:45:48.619Z,14.38
2018-04-29T23:48:14.372Z,14.40
2018-04-29T23:50:40.162Z,14.41
2018-04-29T23:53:05.980Z,14.43
2018-04-29T23:55:31.920Z,14.41
2018-04-29T23:57:57.697Z,14.41
